createdAt,value
2022-12-16T00:00:03.109Z,0.6
2022-12-16T00:01:07.498Z,0.6
2022-12-16T00:02:11.440Z,0.6
2022-12-16T00:03:14.772Z,0.6
2022-12-16T00:04:17.921Z,0.6
2022-12-16T00:05:21.354Z,0.6
2022-12-16T00:06:23.914Z,0.6
2022-12-16T00:07:26.696Z,0.6
2022-12-16T00:08:29.276Z,0.6
2022-12-16T00:09:32.343Z,0.6
2022-12-16T00:10:35.463Z,0.6
2022-12-16T00:11:37.675Z,0.6
2022-12-16T00:12:39.816Z,0.6
2022-12-16T00:13:42.862Z,0.6
2022-12-16T00:14:45.573Z,0.6
2022-12-16T00:15:49.292Z,0.6
2022-12-16T00:16:55.767Z,0.6
2022-12-16T00:17:59.094Z,0.5
2022-12-16T00:19:01.756Z,0.6
2022-12-16T00:20:04.646Z,0.6
2022-12-16T00:21:07.354Z,0.5
2022-12-16T00:22:10.667Z,0.5
2022-12-16T00:23:13.095Z,0.5
2022-12-16T00:24:15.673Z,0.5
2022-12-16T00:25:19.275Z,0.5
2022-12-16T00:26:21.204Z,0.5
2022-12-16T00:27:23.658Z,0.6
2022-12-16T00:28:27.102Z,0.6
2022-12-16T00:29:29.882Z,0.6
2022-12-16T00:30:32.489Z,0.6
2022-12-16T00:31:36.540Z,0.6
2022-12-16T00:32:41.106Z,0.6
2022-12-16T00:33:43.529Z,0.6
2022-12-16T00:34:46.504Z,0.7
2022-12-16T00:35:52.143Z,0.7
2022-12-16T00:36:57.044Z,0.7
2022-12-16T00:37:59.897Z,0.7
2022-12-16T00:39:02.876Z,0.7
2022-12-16T00:40:06.592Z,0.7
2022-12-16T00:41:10.547Z,0.7
2022-12-16T00:42:13.895Z,0.7
2022-12-16T00:43:16.036Z,0.8
2022-12-16T00:44:19.366Z,0.8
2022-12-16T00:45:22.767Z,0.8
2022-12-16T00:46:26.487Z,0.8
2022-12-16T00:47:29.086Z,0.8
2022-12-16T00:48:33.423Z,0.8
2022-12-16T00:49:36.500Z,0.8
2022-12-16T00:50:39.473Z,0.8
2022-12-16T00:51:42.634Z,0.8
2022-12-16T00:52:45.740Z,0.8
2022-12-16T00:53:48.592Z,0.8
2022-12-16T00:54:52.611Z,0.8
2022-12-16T00:55:58.423Z,0.8
2022-12-16T00:57:01.197Z,0.8
2022-12-16T00:58:03.973Z,0.8
2022-12-16T00:59:07.107Z,0.8
2022-12-16T01:00:11.119Z,0.8
2022-12-16T01:01:13.766Z,0.8
2022-12-16T01:02:17.582Z,0.8
2022-12-16T01:03:23.349Z,0.8
2022-12-16T01:04:28.051Z,0.8
2022-12-16T01:05:31.305Z,0.8
2022-12-16T01:06:34.442Z,0.8
2022-12-16T01:07:37.216Z,0.8
2022-12-16T01:08:40.353Z,0.8
2022-12-16T01:09:43.147Z,0.8
2022-12-16T01:10:46.229Z,0.7
2022-12-16T01:11:48.654Z,0.7
2022-12-16T01:12:51.635Z,0.7
2022-12-16T01:13:56.212Z,0.7
2022-12-16T01:14:59.925Z,0.7
2022-12-16T01:16:03.380Z,0.7
2022-12-16T01:17:06.451Z,0.7
2022-12-16T01:18:09.406Z,0.7
2022-12-16T01:19:12.529Z,0.7
2022-12-16T01:20:16.883Z,0.7
2022-12-16T01:21:19.937Z,0.7
2022-12-16T01:22:22.161Z,0.7
2022-12-16T01:23:24.446Z,0.7
2022-12-16T01:24:27.235Z,0.7
2022-12-16T01:25:29.721Z,0.7
2022-12-16T01:26:32.838Z,0.7
2022-12-16T01:27:35.305Z,0.7
2022-12-16T01:28:38.280Z,0.7
2022-12-16T01:29:41.251Z,0.8
2022-12-16T01:30:43.949Z,0.8
2022-12-16T01:31:46.601Z,0.8
2022-12-16T01:32:49.326Z,0.8
2022-12-16T01:33:55.435Z,0.8
2022-12-16T01:34:58.621Z,0.8
2022-12-16T01:36:02.552Z,0.8
2022-12-16T01:37:06.254Z,0.9
2022-12-16T01:38:08.856Z,0.9
2022-12-16T01:39:11.901Z,0.9
2022-12-16T01:40:14.046Z,0.9
2022-12-16T01:41:17.383Z,0.9
2022-12-16T01:42:20.377Z,0.9
2022-12-16T01:43:23.629Z,0.9
2022-12-16T01:44:26.761Z,0.9
2022-12-16T01:45:29.709Z,0.9
2022-12-16T01:46:32.984Z,0.9
2022-12-16T01:47:35.770Z,0.9
2022-12-16T01:48:38.250Z,0.9
2022-12-16T01:49:40.969Z,0.9
2022-12-16T01:50:43.708Z,0.9
2022-12-16T01:51:56.100Z,0.9
2022-12-16T01:52:59.428Z,0.9
2022-12-16T01:54:01.933Z,0.9
2022-12-16T01:55:04.914Z,0.9
2022-12-16T01:56:07.617Z,0.9
2022-12-16T01:57:10.940Z,0.9
2022-12-16T01:58:14.261Z,0.8
2022-12-16T01:59:17.093Z,0.8
2022-12-16T02:00:20.125Z,0.8
2022-12-16T02:01:22.523Z,0.8
2022-12-16T02:02:25.929Z,0.8
2022-12-16T02:03:30.663Z,0.8
2022-12-16T02:04:34.374Z,0.9
2022-12-16T02:05:37.101Z,0.9
2022-12-16T02:06:39.419Z,0.9
2022-12-16T02:07:43.471Z,0.8
2022-12-16T02:08:46.601Z,0.9
2022-12-16T02:09:49.385Z,0.9
2022-12-16T02:10:55.816Z,0.9
2022-12-16T02:11:58.658Z,0.9
2022-12-16T02:13:00.956Z,0.9
2022-12-16T02:14:03.928Z,0.9
2022-12-16T02:15:06.500Z,0.9
2022-12-16T02:16:17.802Z,0.9
2022-12-16T02:17:21.031Z,0.9
2022-12-16T02:18:23.560Z,0.9
2022-12-16T02:19:26.366Z,0.9
2022-12-16T02:20:29.491Z,0.9
2022-12-16T02:21:32.589Z,0.9
2022-12-16T02:22:35.795Z,1
2022-12-16T02:23:39.674Z,1
2022-12-16T02:24:42.654Z,0.9
2022-12-16T02:25:45.074Z,0.9
2022-12-16T02:26:47.771Z,0.9
2022-12-16T02:27:50.193Z,0.9
2022-12-16T02:28:56.200Z,1
2022-12-16T02:29:58.624Z,1
2022-12-16T02:31:02.502Z,1
2022-12-16T02:32:06.216Z,1
2022-12-16T02:33:09.407Z,1
2022-12-16T02:34:12.185Z,1
2022-12-16T02:35:14.568Z,1.1
2022-12-16T02:36:17.077Z,1.1
2022-12-16T02:37:20.075Z,1.1
2022-12-16T02:38:22.671Z,1.1
2022-12-16T02:39:26.967Z,1.1
2022-12-16T02:40:29.913Z,1.1
2022-12-16T02:41:32.670Z,1.1
2022-12-16T02:42:36.075Z,1.1
2022-12-16T02:43:39.292Z,1.1
2022-12-16T02:44:42.537Z,1.1
2022-12-16T02:45:45.606Z,1.1
2022-12-16T02:46:49.193Z,1.1
2022-12-16T02:47:52.710Z,1.1
2022-12-16T02:48:57.071Z,1.1
2022-12-16T02:49:59.837Z,1.1
2022-12-16T02:51:02.878Z,1.1
2022-12-16T02:52:05.016Z,1.1
2022-12-16T02:53:08.112Z,1.1
2022-12-16T02:54:11.157Z,1.1
2022-12-16T02:55:15.205Z,1.1
2022-12-16T02:56:17.694Z,1.1
2022-12-16T02:57:19.908Z,1.1
2022-12-16T02:58:22.678Z,1.1
2022-12-16T02:59:25.825Z,1.1
2022-12-16T03:00:29.219Z,1.1
2022-12-16T03:01:32.846Z,1.1
2022-12-16T03:02:36.417Z,1.1
2022-12-16T03:03:39.356Z,1.1
2022-12-16T03:04:43.016Z,1.1
2022-12-16T03:05:46.072Z,1.1
2022-12-16T03:06:49.410Z,1.1
2022-12-16T03:07:52.665Z,1.1
2022-12-16T03:08:55.746Z,1.1
2022-12-16T03:09:58.259Z,1.1
2022-12-16T03:11:02.078Z,1.1
2022-12-16T03:12:04.400Z,1.1
2022-12-16T03:13:07.244Z,1.1
2022-12-16T03:14:09.384Z,1.1
2022-12-16T03:15:11.882Z,1.1
2022-12-16T03:16:15.005Z,1.1
2022-12-16T03:17:18.510Z,1.1
2022-12-16T03:18:21.553Z,1.1
2022-12-16T03:19:24.697Z,1.1
2022-12-16T03:20:27.949Z,1.1
2022-12-16T03:21:30.248Z,1.1
2022-12-16T03:22:33.015Z,1.1
2022-12-16T03:23:36.387Z,1.1
2022-12-16T03:24:39.569Z,1.1
2022-12-16T03:25:42.923Z,1.1
2022-12-16T03:26:46.798Z,1.1
2022-12-16T03:27:49.563Z,1.1
2022-12-16T03:28:52.249Z,1.1
2022-12-16T03:29:54.532Z,1.1
2022-12-16T03:30:57.124Z,1.1
2022-12-16T03:31:59.515Z,1
2022-12-16T03:33:02.547Z,1.1
2022-12-16T03:34:06.062Z,1.1
2022-12-16T03:35:09.415Z,1.1
2022-12-16T03:36:12.271Z,1.1
2022-12-16T03:37:14.135Z,1.1
2022-12-16T03:38:17.271Z,1
2022-12-16T03:39:20.346Z,1.1
2022-12-16T03:40:22.796Z,1.1
2022-12-16T03:41:25.436Z,1.1
2022-12-16T03:42:30.042Z,1.1
2022-12-16T03:43:34.852Z,1
2022-12-16T03:44:38.110Z,1.1
2022-12-16T03:45:41.262Z,1.1
2022-12-16T03:46:43.732Z,1.1
2022-12-16T03:47:47.225Z,1.1
2022-12-16T03:48:50.079Z,1
2022-12-16T03:49:53.130Z,1.1
2022-12-16T03:50:56.500Z,1.1
2022-12-16T03:51:59.031Z,1
2022-12-16T03:53:02.192Z,1.1
2022-12-16T03:54:05.048Z,1
2022-12-16T03:55:08.373Z,1
2022-12-16T03:56:10.854Z,1
2022-12-16T03:57:16.611Z,1
2022-12-16T03:58:20.404Z,1
2022-12-16T03:59:22.898Z,1
2022-12-16T04:00:25.687Z,1
2022-12-16T04:01:29.812Z,1
2022-12-16T04:02:34.052Z,1
2022-12-16T04:03:38.659Z,1
2022-12-16T04:04:41.639Z,1
2022-12-16T04:05:44.499Z,1
2022-12-16T04:06:47.069Z,1
2022-12-16T04:07:49.857Z,1
2022-12-16T04:08:52.984Z,1
2022-12-16T04:09:56.618Z,1
2022-12-16T04:10:59.742Z,1
2022-12-16T04:12:02.216Z,1
2022-12-16T04:13:04.503Z,1
2022-12-16T04:14:09.531Z,1
2022-12-16T04:15:12.849Z,1
2022-12-16T04:16:15.341Z,1
2022-12-16T04:17:18.695Z,1
2022-12-16T04:18:21.673Z,1
2022-12-16T04:19:24.585Z,1
2022-12-16T04:20:26.455Z,1
2022-12-16T04:21:29.235Z,1
2022-12-16T04:22:31.657Z,1
2022-12-16T04:23:36.165Z,1
2022-12-16T04:24:38.927Z,1
2022-12-16T04:25:42.381Z,1
2022-12-16T04:26:44.619Z,1
2022-12-16T04:27:47.803Z,1.1
2022-12-16T04:28:50.636Z,1.1
2022-12-16T04:29:54.708Z,1.1
2022-12-16T04:30:58.367Z,1.1
2022-12-16T04:32:01.376Z,1.1
2022-12-16T04:33:04.194Z,1.1
2022-12-16T04:34:06.898Z,1.1
2022-12-16T04:35:09.674Z,1.1
2022-12-16T04:36:12.997Z,1.1
2022-12-16T04:37:16.218Z,1.1
2022-12-16T04:38:19.195Z,1.1
2022-12-16T04:39:22.331Z,1.1
2022-12-16T04:40:25.314Z,1.1
2022-12-16T04:41:28.074Z,1.1
2022-12-16T04:42:31.923Z,1.1
2022-12-16T04:43:35.984Z,1.1
2022-12-16T04:44:39.739Z,1.1
2022-12-16T04:45:43.881Z,1.1
2022-12-16T04:46:46.992Z,1.1
2022-12-16T04:47:58.133Z,1.1
2022-12-16T04:49:01.100Z,1.1
2022-12-16T04:50:03.601Z,1.2
2022-12-16T04:51:06.650Z,1.1
2022-12-16T04:52:09.359Z,1.2
2022-12-16T04:53:12.532Z,1.2
2022-12-16T04:54:14.685Z,1.2
2022-12-16T04:55:17.187Z,1.2
2022-12-16T04:56:20.166Z,1.2
2022-12-16T04:57:22.686Z,1.2
2022-12-16T04:58:25.655Z,1.2
2022-12-16T04:59:29.004Z,1.2
2022-12-16T05:00:31.628Z,1.2
2022-12-16T05:01:36.174Z,1.2
2022-12-16T05:02:39.975Z,1.2
2022-12-16T05:03:43.719Z,1.2
2022-12-16T05:04:46.792Z,1.2
2022-12-16T05:05:50.271Z,1.2
2022-12-16T05:06:53.333Z,1.2
2022-12-16T05:07:56.113Z,1.2
2022-12-16T05:08:59.158Z,1.2
2022-12-16T05:10:01.954Z,1.2
2022-12-16T05:11:05.317Z,1.2
2022-12-16T05:12:08.088Z,1.2
2022-12-16T05:13:11.532Z,1.3
2022-12-16T05:14:14.551Z,1.3
2022-12-16T05:15:17.022Z,1.3
2022-12-16T05:16:20.207Z,1.3
2022-12-16T05:17:24.197Z,1.3
2022-12-16T05:18:26.420Z,1.3
2022-12-16T05:19:32.779Z,1.2
2022-12-16T05:20:35.753Z,1.3
2022-12-16T05:21:38.453Z,1.3
2022-12-16T05:22:40.871Z,1.2
2022-12-16T05:23:43.371Z,1.2
2022-12-16T05:24:53.744Z,1.2
2022-12-16T05:25:55.967Z,1.2
2022-12-16T05:26:59.298Z,1.2
2022-12-16T05:28:02.649Z,1.2
2022-12-16T05:29:05.912Z,1.3
2022-12-16T05:30:08.414Z,1.2
2022-12-16T05:31:11.353Z,1.2
2022-12-16T05:32:14.624Z,1.3
2022-12-16T05:33:18.975Z,1.2
2022-12-16T05:34:21.951Z,1.2
2022-12-16T05:35:25.381Z,1.2
2022-12-16T05:36:27.800Z,1.3
2022-12-16T05:37:31.019Z,1.2
2022-12-16T05:38:33.711Z,1.2
2022-12-16T05:39:36.484Z,1.2
2022-12-16T05:40:39.924Z,1.3
2022-12-16T05:41:42.638Z,1.3
2022-12-16T05:42:45.563Z,1.3
2022-12-16T05:43:48.363Z,1.3
2022-12-16T05:44:51.141Z,1.2
2022-12-16T05:45:53.816Z,1.3
2022-12-16T05:46:57.480Z,1.3
2022-12-16T05:48:00.554Z,1.3
2022-12-16T05:49:04.625Z,1.3
2022-12-16T05:50:07.121Z,1.3
2022-12-16T05:51:09.906Z,1.3
2022-12-16T05:52:13.232Z,1.3
2022-12-16T05:53:15.480Z,1.3
2022-12-16T05:54:18.345Z,1.3
2022-12-16T05:55:20.839Z,1.3
2022-12-16T05:56:23.253Z,1.3
2022-12-16T05:57:26.029Z,1.3
2022-12-16T05:58:28.833Z,1.3
2022-12-16T05:59:31.603Z,1.3
2022-12-16T06:00:34.089Z,1.4
2022-12-16T06:01:36.726Z,1.4
2022-12-16T06:02:40.857Z,1.4
2022-12-16T06:03:46.012Z,1.4
2022-12-16T06:04:50.300Z,1.4
2022-12-16T06:05:53.076Z,1.4
2022-12-16T06:06:56.513Z,1.4
2022-12-16T06:07:59.571Z,1.5
2022-12-16T06:09:02.005Z,1.5
2022-12-16T06:10:05.343Z,1.5
2022-12-16T06:11:08.673Z,1.5
2022-12-16T06:12:11.817Z,1.5
2022-12-16T06:13:14.390Z,1.5
2022-12-16T06:14:17.187Z,1.5
2022-12-16T06:15:20.338Z,1.5
2022-12-16T06:16:23.047Z,1.5
2022-12-16T06:17:25.711Z,1.5
2022-12-16T06:18:28.793Z,1.5
2022-12-16T06:19:31.574Z,1.5
2022-12-16T06:20:35.870Z,1.5
2022-12-16T06:21:38.990Z,1.5
2022-12-16T06:22:42.034Z,1.5
2022-12-16T06:23:45.154Z,1.6
2022-12-16T06:24:48.021Z,1.5
2022-12-16T06:25:51.345Z,1.6
2022-12-16T06:26:54.441Z,1.6
2022-12-16T06:27:57.502Z,1.6
2022-12-16T06:28:59.650Z,1.6
2022-12-16T06:30:02.979Z,1.6
2022-12-16T06:31:05.617Z,1.6
2022-12-16T06:32:08.577Z,1.6
2022-12-16T06:33:11.968Z,1.6
2022-12-16T06:34:15.058Z,1.6
2022-12-16T06:35:17.838Z,1.6
2022-12-16T06:36:21.813Z,1.6
2022-12-16T06:37:25.143Z,1.6
2022-12-16T06:38:27.645Z,1.6
2022-12-16T06:39:30.719Z,1.6
2022-12-16T06:40:33.578Z,1.6
2022-12-16T06:41:35.727Z,1.7
2022-12-16T06:42:38.224Z,1.6
2022-12-16T06:43:40.725Z,1.7
2022-12-16T06:44:43.156Z,1.7
2022-12-16T06:45:46.379Z,1.7
2022-12-16T06:46:49.633Z,1.7
2022-12-16T06:47:52.975Z,1.7
2022-12-16T06:48:56.462Z,1.7
2022-12-16T06:49:59.630Z,1.7
2022-12-16T06:51:02.799Z,1.7
2022-12-16T06:52:06.882Z,1.7
2022-12-16T06:53:09.887Z,1.7
2022-12-16T06:54:13.299Z,1.7
2022-12-16T06:55:16.280Z,1.8
2022-12-16T06:56:19.335Z,1.8
2022-12-16T06:57:22.657Z,1.8
2022-12-16T06:58:25.415Z,1.8
2022-12-16T06:59:28.192Z,1.8
2022-12-16T07:00:31.559Z,1.8
2022-12-16T07:01:35.083Z,1.8
2022-12-16T07:02:39.464Z,1.8
2022-12-16T07:03:44.234Z,1.9
2022-12-16T07:04:47.357Z,1.9
2022-12-16T07:05:50.068Z,1.9
2022-12-16T07:06:53.352Z,1.9
2022-12-16T07:07:57.887Z,1.9
2022-12-16T07:09:00.946Z,1.9
2022-12-16T07:10:04.656Z,1.9
2022-12-16T07:11:18.088Z,1.9
2022-12-16T07:12:21.346Z,2
2022-12-16T07:13:23.853Z,2
2022-12-16T07:14:26.420Z,2
2022-12-16T07:15:28.638Z,2
2022-12-16T07:16:32.097Z,2
2022-12-16T07:17:35.778Z,2
2022-12-16T07:18:38.654Z,2
2022-12-16T07:19:41.787Z,2
2022-12-16T07:20:44.569Z,2
2022-12-16T07:21:47.738Z,2
2022-12-16T07:23:17.674Z,2.1
2022-12-16T07:24:23.957Z,2.1
2022-12-16T07:25:27.078Z,2.1
2022-12-16T07:26:30.050Z,2.1
2022-12-16T07:27:33.371Z,2.1
2022-12-16T07:28:36.768Z,2.1
2022-12-16T07:29:40.440Z,2.1
2022-12-16T07:30:43.286Z,2.1
2022-12-16T07:31:46.907Z,2.2
2022-12-16T07:32:50.239Z,2.2
2022-12-16T07:33:52.814Z,2.2
2022-12-16T07:34:56.059Z,2.2
2022-12-16T07:35:58.636Z,2.2
2022-12-16T07:37:01.628Z,2.2
2022-12-16T07:38:04.709Z,2.2
2022-12-16T07:39:08.090Z,2.2
2022-12-16T07:40:12.778Z,2.3
2022-12-16T07:41:15.620Z,2.2
2022-12-16T07:42:18.937Z,2.2
2022-12-16T07:43:22.094Z,2.3
2022-12-16T07:44:25.439Z,2.2
2022-12-16T07:45:29.255Z,2.3
2022-12-16T07:46:32.499Z,2.3
2022-12-16T07:47:35.289Z,2.3
2022-12-16T07:48:38.618Z,2.3
2022-12-16T07:49:41.382Z,2.3
2022-12-16T07:50:44.167Z,2.3
2022-12-16T07:51:47.572Z,2.3
2022-12-16T07:52:50.065Z,2.3
2022-12-16T07:53:57.103Z,2.3
2022-12-16T07:55:00.540Z,2.3
2022-12-16T07:56:04.993Z,2.3
2022-12-16T07:57:08.330Z,2.3
2022-12-16T07:58:10.810Z,2.3
2022-12-16T07:59:13.873Z,2.3
2022-12-16T08:00:17.361Z,2.3
2022-12-16T08:01:20.689Z,2.3
2022-12-16T08:02:24.204Z,2.3
2022-12-16T08:03:28.362Z,2.3
2022-12-16T08:04:32.050Z,2.4
2022-12-16T08:05:35.562Z,2.4
2022-12-16T08:06:41.448Z,2.4
2022-12-16T08:07:44.307Z,2.4
2022-12-16T08:08:48.071Z,2.4
2022-12-16T08:09:51.673Z,2.4
2022-12-16T08:10:56.083Z,2.4
2022-12-16T08:12:00.224Z,2.4
2022-12-16T08:13:03.291Z,2.4
2022-12-16T08:14:06.327Z,2.4
2022-12-16T08:15:09.528Z,2.4
2022-12-16T08:16:12.873Z,2.4
2022-12-16T08:17:16.490Z,2.4
2022-12-16T08:18:19.488Z,2.4
2022-12-16T08:19:22.460Z,2.4
2022-12-16T08:20:25.573Z,2.4
2022-12-16T08:21:29.188Z,2.4
2022-12-16T08:22:32.163Z,2.5
2022-12-16T08:23:36.278Z,2.5
2022-12-16T08:24:40.243Z,2.5
2022-12-16T08:25:43.676Z,2.5
2022-12-16T08:26:47.026Z,2.5
2022-12-16T08:27:50.931Z,2.5
2022-12-16T08:28:55.190Z,2.5
2022-12-16T08:30:47.647Z,2.5
2022-12-16T08:31:51.295Z,2.5
2022-12-16T08:33:19.147Z,2.6
2022-12-16T08:34:22.641Z,2.5
2022-12-16T08:35:26.329Z,2.5
2022-12-16T08:36:29.407Z,2.5
2022-12-16T08:37:32.261Z,2.5
2022-12-16T08:38:35.903Z,2.5
2022-12-16T08:39:39.112Z,2.5
2022-12-16T08:40:42.729Z,2.5
2022-12-16T08:41:45.505Z,2.5
2022-12-16T08:42:48.661Z,2.5
2022-12-16T08:43:52.602Z,2.5
2022-12-16T08:44:57.360Z,2.5
2022-12-16T08:46:00.325Z,2.5
2022-12-16T08:47:03.676Z,2.5
2022-12-16T08:48:06.459Z,2.5
2022-12-16T08:49:09.794Z,2.5
2022-12-16T08:50:12.364Z,2.5
2022-12-16T08:51:14.862Z,2.5
2022-12-16T08:52:17.856Z,2.5
2022-12-16T08:53:21.059Z,2.5
2022-12-16T08:54:23.928Z,2.5
2022-12-16T08:55:30.590Z,2.5
2022-12-16T08:56:33.628Z,2.5
2022-12-16T08:57:37.078Z,2.5
2022-12-16T08:58:40.204Z,2.5
2022-12-16T08:59:44.431Z,2.5
2022-12-16T09:00:46.849Z,2.5
2022-12-16T09:01:51.577Z,2.5
2022-12-16T09:02:58.744Z,2.5
2022-12-16T09:04:03.221Z,2.5
2022-12-16T09:05:06.631Z,2.5
2022-12-16T09:06:09.793Z,2.6
2022-12-16T09:07:12.836Z,2.5
2022-12-16T09:08:15.928Z,2.6
2022-12-16T09:09:19.099Z,2.6
2022-12-16T09:10:22.145Z,2.6
2022-12-16T09:11:25.200Z,2.6
2022-12-16T09:12:28.189Z,2.5
2022-12-16T09:13:33.244Z,2.6
2022-12-16T09:14:38.053Z,2.6
2022-12-16T09:15:42.483Z,2.6
2022-12-16T09:16:45.578Z,2.6
2022-12-16T09:17:48.351Z,2.6
2022-12-16T09:18:51.333Z,2.6
2022-12-16T09:19:55.972Z,2.6
2022-12-16T09:20:59.419Z,2.7
2022-12-16T09:22:02.471Z,2.6
2022-12-16T09:23:05.544Z,2.7
2022-12-16T09:24:09.356Z,2.7
2022-12-16T09:25:11.931Z,2.7
2022-12-16T09:26:15.641Z,2.7
2022-12-16T09:27:18.810Z,2.7
2022-12-16T09:28:21.893Z,2.7
2022-12-16T09:29:24.501Z,2.7
2022-12-16T09:30:27.737Z,2.7
2022-12-16T09:31:32.190Z,2.8
2022-12-16T09:32:35.682Z,2.7
2022-12-16T09:33:38.803Z,2.8
2022-12-16T09:34:41.476Z,2.8
2022-12-16T09:35:44.523Z,2.8
2022-12-16T09:36:47.742Z,2.8
2022-12-16T09:37:51.987Z,2.8
2022-12-16T09:38:57.743Z,2.8
2022-12-16T09:40:01.151Z,2.8
2022-12-16T09:41:04.251Z,2.9
2022-12-16T09:42:07.113Z,2.8
2022-12-16T09:43:11.022Z,2.9
2022-12-16T09:44:13.829Z,2.9
2022-12-16T09:45:17.265Z,2.9
2022-12-16T09:46:20.598Z,2.9
2022-12-16T09:47:25.222Z,2.9
2022-12-16T09:48:28.727Z,2.9
2022-12-16T09:49:31.783Z,2.9
2022-12-16T09:50:34.558Z,2.9
2022-12-16T09:51:37.915Z,2.9
2022-12-16T09:52:40.968Z,2.9
2022-12-16T09:53:44.383Z,2.9
2022-12-16T09:54:47.462Z,2.9
2022-12-16T09:55:50.164Z,2.9
2022-12-16T09:56:56.270Z,3
2022-12-16T09:57:58.711Z,2.9
2022-12-16T09:59:01.592Z,2.9
2022-12-16T10:00:04.077Z,2.9
2022-12-16T10:01:06.482Z,3
2022-12-16T10:02:10.032Z,2.9
2022-12-16T10:03:15.363Z,3
2022-12-16T10:04:18.814Z,3
2022-12-16T10:05:22.615Z,3
2022-12-16T10:06:25.043Z,3
2022-12-16T10:07:28.157Z,3
2022-12-16T10:08:30.702Z,3
2022-12-16T10:09:33.953Z,3
2022-12-16T10:10:37.792Z,3.1
2022-12-16T10:11:40.284Z,3.1
2022-12-16T10:12:43.615Z,3.1
2022-12-16T10:13:46.151Z,3.1
2022-12-16T10:14:48.929Z,3
2022-12-16T10:15:53.523Z,3.1
2022-12-16T10:16:58.800Z,3.1
2022-12-16T10:18:02.084Z,3.1
2022-12-16T10:19:06.152Z,3
2022-12-16T10:20:10.743Z,3
2022-12-16T10:21:14.154Z,3
2022-12-16T10:22:17.385Z,3
2022-12-16T10:23:20.195Z,3
2022-12-16T10:24:22.897Z,3
2022-12-16T10:25:26.548Z,3
2022-12-16T10:26:29.521Z,3.1
2022-12-16T10:27:32.291Z,3
2022-12-16T10:28:35.369Z,3.1
2022-12-16T10:29:38.073Z,3
2022-12-16T10:30:41.048Z,3
2022-12-16T10:31:44.386Z,3.1
2022-12-16T10:32:47.818Z,3
2022-12-16T10:33:50.624Z,3.1
2022-12-16T10:34:56.687Z,3.1
2022-12-16T10:36:00.677Z,3.1
2022-12-16T10:37:20.601Z,3.1
2022-12-16T10:38:23.980Z,3.1
2022-12-16T10:39:27.069Z,3.1
2022-12-16T10:40:29.315Z,3.1
2022-12-16T10:41:32.684Z,3.1
2022-12-16T10:42:35.536Z,3.1
2022-12-16T10:43:40.006Z,3.1
2022-12-16T10:44:42.503Z,3.1
2022-12-16T10:45:45.370Z,3.1
2022-12-16T10:46:48.824Z,3.1
2022-12-16T10:47:52.666Z,3.1
2022-12-16T10:48:59.352Z,3.1
2022-12-16T10:50:04.271Z,3.1
2022-12-16T10:51:07.805Z,3.1
2022-12-16T10:52:11.728Z,3.1
2022-12-16T10:53:14.235Z,3.2
2022-12-16T10:54:17.968Z,3.2
2022-12-16T10:55:21.161Z,3.2
2022-12-16T10:56:24.497Z,3.2
2022-12-16T10:57:27.192Z,3.3
2022-12-16T10:58:36.371Z,3.3
2022-12-16T10:59:39.416Z,3.3
2022-12-16T11:00:42.488Z,3.3
2022-12-16T11:01:45.685Z,3.3
2022-12-16T11:02:50.728Z,3.3
2022-12-16T11:03:55.676Z,3.4
2022-12-16T11:04:59.494Z,3.4
2022-12-16T11:06:03.782Z,3.4
2022-12-16T11:07:06.289Z,3.5
2022-12-16T11:08:09.916Z,3.5
2022-12-16T11:09:12.684Z,3.5
2022-12-16T11:10:23.504Z,3.5
2022-12-16T11:11:26.685Z,3.6
2022-12-16T11:12:29.735Z,3.5
2022-12-16T11:13:33.871Z,3.6
2022-12-16T11:14:37.786Z,3.6
2022-12-16T11:15:43.522Z,3.6
2022-12-16T11:16:47.088Z,3.6
2022-12-16T11:17:50.283Z,3.6
2022-12-16T11:18:54.189Z,3.6
2022-12-16T11:19:58.984Z,3.6
2022-12-16T11:21:13.281Z,3.6
2022-12-16T11:22:20.513Z,3.7
2022-12-16T11:23:23.216Z,3.7
2022-12-16T11:24:26.106Z,3.7
2022-12-16T11:25:29.446Z,3.7
2022-12-16T11:26:38.214Z,3.7
2022-12-16T11:27:41.816Z,3.7
2022-12-16T11:28:45.234Z,3.7
2022-12-16T11:29:47.935Z,3.7
2022-12-16T11:30:51.274Z,3.7
2022-12-16T11:32:02.073Z,3.7
2022-12-16T11:33:05.718Z,3.7
2022-12-16T11:34:07.922Z,3.7
2022-12-16T11:35:12.017Z,3.8
2022-12-16T11:36:16.037Z,3.8
2022-12-16T11:37:22.224Z,3.8
2022-12-16T11:38:25.928Z,3.8
2022-12-16T11:39:29.289Z,3.8
2022-12-16T11:40:32.621Z,3.8
2022-12-16T11:41:35.393Z,3.9
2022-12-16T11:42:38.443Z,3.8
2022-12-16T11:43:41.711Z,3.9
2022-12-16T11:44:44.551Z,3.9
2022-12-16T11:45:48.250Z,3.9
2022-12-16T11:46:52.139Z,3.9
2022-12-16T11:47:59.042Z,3.9
2022-12-16T11:49:01.968Z,3.9
2022-12-16T11:50:05.047Z,3.9
2022-12-16T11:51:07.747Z,3.9
2022-12-16T11:52:38.092Z,3.9
2022-12-16T11:53:42.380Z,4
2022-12-16T11:54:45.881Z,4
2022-12-16T11:56:16.785Z,4
2022-12-16T11:57:20.495Z,4
2022-12-16T11:58:23.082Z,4
2022-12-16T11:59:26.061Z,4
2022-12-16T12:00:29.004Z,4
2022-12-16T12:01:32.911Z,4
2022-12-16T12:02:36.592Z,4
2022-12-16T12:03:41.424Z,4
2022-12-16T12:04:45.128Z,4.1
2022-12-16T12:05:49.123Z,4.1
2022-12-16T12:06:51.699Z,4.1
2022-12-16T12:07:56.567Z,4.1
2022-12-16T12:09:00.720Z,4.1
2022-12-16T12:10:03.793Z,4.1
2022-12-16T12:11:06.868Z,4.1
2022-12-16T12:12:11.068Z,4.1
2022-12-16T12:13:13.770Z,4.1
2022-12-16T12:14:16.547Z,4.1
2022-12-16T12:15:19.600Z,4.1
2022-12-16T12:16:22.022Z,4.1
2022-12-16T12:17:25.647Z,4.1
2022-12-16T12:18:28.722Z,4.1
2022-12-16T12:19:31.193Z,4.1
2022-12-16T12:20:34.262Z,4.2
2022-12-16T12:21:38.080Z,4.2
2022-12-16T12:22:40.567Z,4.2
2022-12-16T12:23:43.746Z,4.2
2022-12-16T12:24:47.891Z,4.2
2022-12-16T12:26:00.295Z,4.2
2022-12-16T12:27:03.367Z,4.2
2022-12-16T12:28:06.221Z,4.2
2022-12-16T12:29:09.276Z,4.2
2022-12-16T12:30:17.369Z,4.2
2022-12-16T12:31:21.298Z,4.2
2022-12-16T12:32:24.349Z,4.2
2022-12-16T12:33:28.333Z,4.2
2022-12-16T12:34:31.415Z,4.2
2022-12-16T12:35:34.818Z,4.2
2022-12-16T12:36:38.995Z,4.2
2022-12-16T12:37:42.645Z,4.2
2022-12-16T12:38:45.822Z,4.2
2022-12-16T12:39:49.003Z,4.2
2022-12-16T12:40:53.283Z,4.2
2022-12-16T12:41:57.541Z,4.2
2022-12-16T12:43:00.963Z,4.2
2022-12-16T12:44:04.533Z,4.3
2022-12-16T12:45:07.789Z,4.3
2022-12-16T12:46:12.010Z,4.3
2022-12-16T12:47:15.608Z,4.3
2022-12-16T12:48:18.984Z,4.3
2022-12-16T12:49:21.850Z,4.2
2022-12-16T12:50:25.212Z,4.3
2022-12-16T12:51:28.073Z,4.3
2022-12-16T12:52:31.124Z,4.3
2022-12-16T12:53:36.083Z,4.3
2022-12-16T12:54:40.246Z,4.3
2022-12-16T12:55:43.677Z,4.3
2022-12-16T12:56:47.461Z,4.3
2022-12-16T12:57:50.098Z,4.3
2022-12-16T12:58:57.749Z,4.3
2022-12-16T13:00:03.509Z,4.3
2022-12-16T13:01:06.877Z,4.3
2022-12-16T13:02:11.296Z,4.3
2022-12-16T13:03:15.247Z,4.3
2022-12-16T13:04:18.534Z,4.3
2022-12-16T13:05:25.533Z,4.3
2022-12-16T13:06:28.782Z,4.3
2022-12-16T13:07:31.956Z,4.3
2022-12-16T13:08:35.053Z,4.3
2022-12-16T13:09:38.123Z,4.3
2022-12-16T13:10:41.057Z,4.3
2022-12-16T13:11:44.651Z,4.3
2022-12-16T13:12:48.866Z,4.3
2022-12-16T13:13:52.303Z,4.4
2022-12-16T13:14:58.201Z,4.4
2022-12-16T13:16:01.872Z,4.3
2022-12-16T13:17:05.252Z,4.3
2022-12-16T13:18:08.303Z,4.3
2022-12-16T13:19:12.534Z,4.3
2022-12-16T13:20:16.431Z,4.3
2022-12-16T13:21:19.289Z,4.3
2022-12-16T13:22:23.000Z,4.3
2022-12-16T13:23:26.710Z,4.4
2022-12-16T13:24:29.967Z,4.3
2022-12-16T13:25:33.418Z,4.3
2022-12-16T13:26:36.870Z,4.3
2022-12-16T13:27:40.288Z,4.3
2022-12-16T13:28:44.135Z,4.3
2022-12-16T13:29:47.196Z,4.4
2022-12-16T13:30:49.563Z,4.3
2022-12-16T13:31:56.378Z,4.3
2022-12-16T13:33:00.165Z,4.3
2022-12-16T13:34:03.533Z,4.3
2022-12-16T13:35:06.874Z,4.3
2022-12-16T13:36:10.303Z,4.3
2022-12-16T13:37:12.792Z,4.3
2022-12-16T13:38:18.446Z,4.3
2022-12-16T13:39:21.828Z,4.3
2022-12-16T13:40:24.542Z,4.3
2022-12-16T13:41:27.575Z,4.4
2022-12-16T13:42:31.040Z,4.4
2022-12-16T13:43:34.963Z,4.4
2022-12-16T13:44:40.019Z,4.4
2022-12-16T13:45:43.197Z,4.4
2022-12-16T13:46:45.493Z,4.4
2022-12-16T13:47:48.695Z,4.4
2022-12-16T13:48:51.561Z,4.3
2022-12-16T13:49:54.618Z,4.4
2022-12-16T13:50:57.128Z,4.4
2022-12-16T13:52:00.309Z,4.4
2022-12-16T13:53:03.915Z,4.4
2022-12-16T13:54:07.633Z,4.4
2022-12-16T13:55:10.452Z,4.4
2022-12-16T13:56:13.227Z,4.4
2022-12-16T13:57:16.936Z,4.3
2022-12-16T13:58:19.461Z,4.4
2022-12-16T13:59:22.471Z,4.4
2022-12-16T14:00:28.847Z,4.3
2022-12-16T14:01:39.914Z,4.3
2022-12-16T14:02:43.754Z,4.4
2022-12-16T14:03:47.749Z,4.3
2022-12-16T14:04:51.207Z,4.3
2022-12-16T14:05:54.647Z,4.3
2022-12-16T14:06:57.693Z,4.4
2022-12-16T14:08:01.164Z,4.4
2022-12-16T14:09:04.606Z,4.4
2022-12-16T14:10:07.937Z,4.4
2022-12-16T14:11:10.604Z,4.4
2022-12-16T14:12:13.122Z,4.4
2022-12-16T14:13:16.247Z,4.4
2022-12-16T14:14:19.600Z,4.4
2022-12-16T14:15:22.300Z,4.3
2022-12-16T14:16:26.617Z,4.3
2022-12-16T14:17:30.036Z,4.3
2022-12-16T14:18:32.611Z,4.3
2022-12-16T14:19:35.710Z,4.3
2022-12-16T14:20:38.133Z,4.3
2022-12-16T14:21:40.627Z,4.3
2022-12-16T14:22:44.061Z,4.3
2022-12-16T14:23:59.108Z,4.2
2022-12-16T14:25:03.546Z,4.2
2022-12-16T14:26:07.243Z,4.2
2022-12-16T14:27:10.203Z,4.2
2022-12-16T14:28:13.275Z,4.2
2022-12-16T14:29:15.430Z,4.2
2022-12-16T14:30:18.794Z,4.2
2022-12-16T14:31:22.115Z,4.2
2022-12-16T14:32:26.244Z,4.1
2022-12-16T14:33:29.608Z,4.1
2022-12-16T14:34:34.215Z,4.1
2022-12-16T14:35:36.739Z,4.1
2022-12-16T14:36:39.711Z,4.1
2022-12-16T14:37:43.034Z,4.1
2022-12-16T14:38:46.018Z,4.1
2022-12-16T14:39:49.081Z,4.1
2022-12-16T14:40:52.468Z,4
2022-12-16T14:41:55.166Z,4
2022-12-16T14:42:58.426Z,4